sensor_id;sensor_type;location;lat;lon;timestamp;temperature;humidity
5556;DHT22;2801;50.972;7.856;2023-08-08T00:02:01;11.50;99.90
5556;DHT22;2801;50.972;7.856;2023-08-08T00:04:28;11.40;99.90
5556;DHT22;2801;50.972;7.856;2023-08-08T00:06:54;11.40;99.90
5556;DHT22;2801;50.972;7.856;2023-08-08T00:09:21;11.40;99.90
5556;DHT22;2801;50.972;7.856;2023-08-08T00:11:49;11.30;99.90
5556;DHT22;2801;50.972;7.856;2023-08-08T00:14:16;11.30;99.90
5556;DHT22;2801;50.972;7.856;2023-08-08T00:16:43;11.30;99.90
5556;DHT22;2801;50.972;7.856;2023-08-08T00:19:09;11.30;99.90
5556;DHT22;2801;50.972;7.856;2023-08-08T00:21:36;11.30;99.90
5556;DHT22;2801;50.972;7.856;2023-08-08T00:24:04;11.40;99.90
5556;DHT22;2801;50.972;7.856;2023-08-08T00:26:31;11.40;99.90
5556;DHT22;2801;50.972;7.856;2023-08-08T00:28:58;11.40;99.90
5556;DHT22;2801;50.972;7.856;2023-08-08T00:31:25;11.30;99.90
5556;DHT22;2801;50.972;7.856;2023-08-08T00:33:52;11.30;99.90
5556;DHT22;2801;50.972;7.856;2023-08-08T00:36:19;11.30;99.90
5556;DHT22;2801;50.972;7.856;2023-08-08T00:38:45;11.30;99.90
5556;DHT22;2801;50.972;7.856;2023-08-08T00:41:12;11.30;99.90
5556;DHT22;2801;50.972;7.856;2023-08-08T00:43:39;11.30;99.90
5556;DHT22;2801;50.972;7.856;2023-08-08T00:46:06;11.30;99.90
5556;DHT22;2801;50.972;7.856;2023-08-08T00:48:38;11.30;99.90
5556;DHT22;2801;50.972;7.856;2023-08-08T00:51:05;11.20;99.90
5556;DHT22;2801;50.972;7.856;2023-08-08T00:53:32;11.20;99.90
5556;DHT22;2801;50.972;7.856;2023-08-08T00:55:59;11.20;99.90
5556;DHT22;2801;50.972;7.856;2023-08-08T00:58:27;11.10;99.90
5556;DHT22;2801;50.972;7.856;2023-08-08T01:00:55;11.10;99.90
5556;DHT22;2801;50.972;7.856;2023-08-08T01:03:24;11.10;99.90
5556;DHT22;2801;50.972;7.856;2023-08-08T01:05:57;11.00;99.90
5556;DHT22;2801;50.972;7.856;2023-08-08T01:08:35;11.00;99.90
5556;DHT22;2801;50.972;7.856;2023-08-08T01:11:09;10.90;99.90
5556;DHT22;2801;50.972;7.856;2023-08-08T01:13:38;10.90;99.90
5556;DHT22;2801;50.972;7.856;2023-08-08T01:16:07;10.80;99.90
5556;DHT22;2801;50.972;7.856;2023-08-08T01:18:35;10.80;99.90
5556;DHT22;2801;50.972;7.856;2023-08-08T01:21:05;10.80;99.90
5556;DHT22;2801;50.972;7.856;2023-08-08T01:23:52;10.80;99.90
5556;DHT22;2801;50.972;7.856;2023-08-08T01:26:23;10.80;99.90
5556;DHT22;2801;50.972;7.856;2023-08-08T01:28:53;10.80;99.90
5556;DHT22;2801;50.972;7.856;2023-08-08T01:31:21;10.80;99.90
5556;DHT22;2801;50.972;7.856;2023-08-08T01:33:48;10.80;99.90
5556;DHT22;2801;50.972;7.856;2023-08-08T01:36:32;10.80;99.90
5556;DHT22;2801;50.972;7.856;2023-08-08T01:39:30;10.70;99.90
5556;DHT22;2801;50.972;7.856;2023-08-08T01:41:59;10.60;99.90
5556;DHT22;2801;50.972;7.856;2023-08-08T01:44:28;10.60;99.90
5556;DHT22;2801;50.972;7.856;2023-08-08T01:46:56;10.60;99.90
5556;DHT22;2801;50.972;7.856;2023-08-08T01:49:23;10.60;99.90
5556;DHT22;2801;50.972;7.856;2023-08-08T01:51:50;10.60;99.90
5556;DHT22;2801;50.972;7.856;2023-08-08T01:54:19;10.60;99.90
5556;DHT22;2801;50.972;7.856;2023-08-08T01:56:46;10.50;99.90
5556;DHT22;2801;50.972;7.856;2023-08-08T01:59:13;10.50;99.90
5556;DHT22;2801;50.972;7.856;2023-08-08T02:01:41;10.40;99.90
5556;DHT22;2801;50.972;7.856;2023-08-08T02:04:09;10.30;99.90
5556;DHT22;2801;50.972;7.856;2023-08-08T02:06:36;10.30;99.90
5556;DHT22;2801;50.972;7.856;2023-08-08T02:09:03;10.30;99.90
5556;DHT22;2801;50.972;7.856;2023-08-08T02:11:29;10.30;99.90
5556;DHT22;2801;50.972;7.856;2023-08-08T02:13:56;10.30;99.90
5556;DHT22;2801;50.972;7.856;2023-08-08T02:16:23;10.30;99.90
5556;DHT22;2801;50.972;7.856;2023-08-08T02:18:50;10.30;99.90
5556;DHT22;2801;50.972;7.856;2023-08-08T02:21:17;10.30;99.90
5556;DHT22;2801;50.972;7.856;2023-08-08T02:23:44;10.30;99.90
5556;DHT22;2801;50.972;7.856;2023-08-08T02:26:11;10.30;99.90
5556;DHT22;2801;50.972;7.856;2023-08-08T02:28:38;10.30;99.90
5556;DHT22;2801;50.972;7.856;2023-08-08T02:31:05;10.40;99.90
5556;DHT22;2801;50.972;7.856;2023-08-08T02:33:32;10.40;99.90
5556;DHT22;2801;50.972;7.856;2023-08-08T02:35:59;10.40;99.90
5556;DHT22;2801;50.972;7.856;2023-08-08T02:38:26;10.40;99.90
5556;DHT22;2801;50.972;7.856;2023-08-08T02:40:53;10.30;99.90
5556;DHT22;2801;50.972;7.856;2023-08-08T02:43:20;10.40;99.90
5556;DHT22;2801;50.972;7.856;2023-08-08T02:45:47;10.40;99.90
5556;DHT22;2801;50.972;7.856;2023-08-08T02:48:13;10.40;99.90
5556;DHT22;2801;50.972;7.856;2023-08-08T02:50:40;10.40;99.90
5556;DHT22;2801;50.972;7.856;2023-08-08T02:53:10;10.50;99.90
5556;DHT22;2801;50.972;7.856;2023-08-08T02:55:37;10.50;99.90
5556;DHT22;2801;50.972;7.856;2023-08-08T02:58:04;10.50;99.90
5556;DHT22;2801;50.972;7.856;2023-08-08T03:00:31;10.40;99.90
5556;DHT22;2801;50.972;7.856;2023-08-08T03:02:58;10.40;99.90
5556;DHT22;2801;50.972;7.856;2023-08-08T03:05:25;10.40;99.90
5556;DHT22;2801;50.972;7.856;2023-08-08T03:07:52;10.40;99.90
5556;DHT22;2801;50.972;7.856;2023-08-08T03:10:19;10.30;99.90
5556;DHT22;2801;50.972;7.856;2023-08-08T03:12:47;10.30;99.90
5556;DHT22;2801;50.972;7.856;2023-08-08T03:15:14;10.30;99.90
5556;DHT22;2801;50.972;7.856;2023-08-08T03:17:41;10.30;99.90
5556;DHT22;2801;50.972;7.856;2023-08-08T03:20:08;10.30;99.90
5556;DHT22;2801;50.972;7.856;2023-08-08T03:22:38;10.30;99.90
5556;DHT22;2801;50.972;7.856;2023-08-08T03:25:05;10.40;99.90
5556;DHT22;2801;50.972;7.856;2023-08-08T03:27:32;10.40;99.90
5556;DHT22;2801;50.972;7.856;2023-08-08T03:29:59;10.50;99.90
5556;DHT22;2801;50.972;7.856;2023-08-08T03:32:27;10.30;99.90
5556;DHT22;2801;50.972;7.856;2023-08-08T03:34:54;10.30;99.90
5556;DHT22;2801;50.972;7.856;2023-08-08T03:37:21;10.30;99.90
5556;DHT22;2801;50.972;7.856;2023-08-08T03:39:48;10.30;99.90
5556;DHT22;2801;50.972;7.856;2023-08-08T03:42:15;10.30;99.90
5556;DHT22;2801;50.972;7.856;2023-08-08T03:44:42;10.30;99.90
5556;DHT22;2801;50.972;7.856;2023-08-08T03:47:11;10.30;99.90
5556;DHT22;2801;50.972;7.856;2023-08-08T03:49:45;10.30;99.90
5556;DHT22;2801;50.972;7.856;2023-08-08T03:52:12;10.40;99.90
5556;DHT22;2801;50.972;7.856;2023-08-08T03:54:39;10.40;99.90
5556;DHT22;2801;50.972;7.856;2023-08-08T03:57:06;10.30;99.90
5556;DHT22;2801;50.972;7.856;2023-08-08T03:59:33;10.30;99.90
5556;DHT22;2801;50.972;7.856;2023-08-08T04:02:00;10.20;99.90
5556;DHT22;2801;50.972;7.856;2023-08-08T04:04:28;10.20;99.90
5556;DHT22;2801;50.972;7.856;2023-08-08T04:06:55;10.10;99.90
5556;DHT22;2801;50.972;7.856;2023-08-08T04:09:21;10.10;99.90
5556;DHT22;2801;50.972;7.856;2023-08-08T04:11:48;10.00;99.90
5556;DHT22;2801;50.972;7.856;2023-08-08T04:14:15;10.00;99.90
5556;DHT22;2801;50.972;7.856;2023-08-08T04:16:42;10.00;99.90
5556;DHT22;2801;50.972;7.856;2023-08-08T04:19:09;9.90;99.90
5556;DHT22;2801;50.972;7.856;2023-08-08T04:21:37;9.90;99.90
5556;DHT22;2801;50.972;7.856;2023-08-08T04:24:04;9.90;99.90
5556;DHT22;2801;50.972;7.856;2023-08-08T04:26:33;9.90;99.90
5556;DHT22;2801;50.972;7.856;2023-08-08T04:29:00;9.80;99.90
5556;DHT22;2801;50.972;7.856;2023-08-08T04:31:27;9.80;99.90
5556;DHT22;2801;50.972;7.856;2023-08-08T04:33:55;9.90;99.90
5556;DHT22;2801;50.972;7.856;2023-08-08T04:36:28;9.90;99.90
5556;DHT22;2801;50.972;7.856;2023-08-08T04:38:56;10.00;99.90
5556;DHT22;2801;50.972;7.856;2023-08-08T04:41:23;10.10;99.90
5556;DHT22;2801;50.972;7.856;2023-08-08T04:43:50;10.20;99.90
5556;DHT22;2801;50.972;7.856;2023-08-08T04:46:17;10.30;99.90
5556;DHT22;2801;50.972;7.856;2023-08-08T04:48:44;10.50;99.90
5556;DHT22;2801;50.972;7.856;2023-08-08T04:51:11;10.40;99.90
5556;DHT22;2801;50.972;7.856;2023-08-08T04:53:38;10.50;99.90
5556;DHT22;2801;50.972;7.856;2023-08-08T04:56:05;10.60;99.90
5556;DHT22;2801;50.972;7.856;2023-08-08T04:58:36;10.60;99.90
5556;DHT22;2801;50.972;7.856;2023-08-08T05:01:03;10.70;99.90
5556;DHT22;2801;50.972;7.856;2023-08-08T05:03:30;10.80;99.90
5556;DHT22;2801;50.972;7.856;2023-08-08T05:05:57;10.80;99.90
5556;DHT22;2801;50.972;7.856;2023-08-08T05:08:25;10.90;99.90
5556;DHT22;2801;50.972;7.856;2023-08-08T05:10:52;11.00;99.90
5556;DHT22;2801;50.972;7.856;2023-08-08T05:13:19;11.00;99.90
5556;DHT22;2801;50.972;7.856;2023-08-08T05:15:46;11.10;99.90
5556;DHT22;2801;50.972;7.856;2023-08-08T05:18:13;11.10;99.90
5556;DHT22;2801;50.972;7.856;2023-08-08T05:20:40;11.20;99.90
5556;DHT22;2801;50.972;7.856;2023-08-08T05:23:07;11.30;99.90
5556;DHT22;2801;50.972;7.856;2023-08-08T05:25:34;11.40;99.90
5556;DHT22;2801;50.972;7.856;2023-08-08T05:28:01;11.40;99.90
5556;DHT22;2801;50.972;7.856;2023-08-08T05:30:29;11.40;99.90
5556;DHT22;2801;50.972;7.856;2023-08-08T05:32:56;11.50;99.90
5556;DHT22;2801;50.972;7.856;2023-08-08T05:35:23;11.60;99.90
5556;DHT22;2801;50.972;7.856;2023-08-08T05:37:50;11.60;99.90
5556;DHT22;2801;50.972;7.856;2023-08-08T05:40:17;11.70;99.90
5556;DHT22;2801;50.972;7.856;2023-08-08T05:42:44;11.70;99.90
5556;DHT22;2801;50.972;7.856;2023-08-08T05:45:11;11.80;99.90
5556;DHT22;2801;50.972;7.856;2023-08-08T05:47:38;11.80;99.90
5556;DHT22;2801;50.972;7.856;2023-08-08T05:50:06;11.80;99.90
5556;DHT22;2801;50.972;7.856;2023-08-08T05:52:33;11.90;99.90
5556;DHT22;2801;50.972;7.856;2023-08-08T05:55:01;11.90;99.90
5556;DHT22;2801;50.972;7.856;2023-08-08T05:57:28;12.00;99.90
5556;DHT22;2801;50.972;7.856;2023-08-08T05:59:55;12.00;99.90
5556;DHT22;2801;50.972;7.856;2023-08-08T06:02:22;12.10;99.90
5556;DHT22;2801;50.972;7.856;2023-08-08T06:04:48;12.10;99.90
5556;DHT22;2801;50.972;7.856;2023-08-08T06:07:15;12.10;99.90
5556;DHT22;2801;50.972;7.856;2023-08-08T06:09:42;12.10;99.90
5556;DHT22;2801;50.972;7.856;2023-08-08T06:12:09;12.20;99.90
5556;DHT22;2801;50.972;7.856;2023-08-08T06:14:37;12.20;99.90
5556;DHT22;2801;50.972;7.856;2023-08-08T06:17:04;12.20;99.90
5556;DHT22;2801;50.972;7.856;2023-08-08T06:19:32;12.20;99.90
5556;DHT22;2801;50.972;7.856;2023-08-08T06:21:59;12.20;99.90
5556;DHT22;2801;50.972;7.856;2023-08-08T06:24:26;12.20;99.90
5556;DHT22;2801;50.972;7.856;2023-08-08T06:26:53;12.30;99.90
5556;DHT22;2801;50.972;7.856;2023-08-08T06:29:20;12.30;99.90
5556;DHT22;2801;50.972;7.856;2023-08-08T06:31:47;12.40;99.90
5556;DHT22;2801;50.972;7.856;2023-08-08T06:34:14;12.40;99.90
5556;DHT22;2801;50.972;7.856;2023-08-08T06:36:42;12.50;99.90
5556;DHT22;2801;50.972;7.856;2023-08-08T06:39:09;12.50;99.90
5556;DHT22;2801;50.972;7.856;2023-08-08T06:41:38;12.60;99.90
5556;DHT22;2801;50.972;7.856;2023-08-08T06:44:06;12.60;99.90
5556;DHT22;2801;50.972;7.856;2023-08-08T06:46:34;12.60;99.90
5556;DHT22;2801;50.972;7.856;2023-08-08T06:49:01;12.60;99.90
5556;DHT22;2801;50.972;7.856;2023-08-08T06:51:28;12.60;99.90
5556;DHT22;2801;50.972;7.856;2023-08-08T06:53:54;12.50;99.90
5556;DHT22;2801;50.972;7.856;2023-08-08T06:56:22;12.50;99.90
5556;DHT22;2801;50.972;7.856;2023-08-08T06:58:49;12.60;99.90
5556;DHT22;2801;50.972;7.856;2023-08-08T07:01:15;12.60;99.90
5556;DHT22;2801;50.972;7.856;2023-08-08T07:03:42;12.60;99.90
5556;DHT22;2801;50.972;7.856;2023-08-08T07:06:10;12.60;99.90
5556;DHT22;2801;50.972;7.856;2023-08-08T07:08:37;12.70;99.90
5556;DHT22;2801;50.972;7.856;2023-08-08T07:11:06;12.70;99.90
5556;DHT22;2801;50.972;7.856;2023-08-08T07:13:33;12.70;99.90
5556;DHT22;2801;50.972;7.856;2023-08-08T07:16:00;12.90;99.90
5556;DHT22;2801;50.972;7.856;2023-08-08T07:18:28;12.70;99.90
5556;DHT22;2801;50.972;7.856;2023-08-08T07:20:55;12.80;99.90
5556;DHT22;2801;50.972;7.856;2023-08-08T07:23:23;12.80;99.90
5556;DHT22;2801;50.972;7.856;2023-08-08T07:25:50;12.80;99.90
5556;DHT22;2801;50.972;7.856;2023-08-08T07:28:17;12.70;99.90
5556;DHT22;2801;50.972;7.856;2023-08-08T07:30:44;12.70;99.90
5556;DHT22;2801;50.972;7.856;2023-08-08T07:33:11;12.70;99.90
5556;DHT22;2801;50.972;7.856;2023-08-08T07:35:40;12.70;99.90
5556;DHT22;2801;50.972;7.856;2023-08-08T07:38:07;12.70;99.90
5556;DHT22;2801;50.972;7.856;2023-08-08T07:40:34;12.70;99.90
5556;DHT22;2801;50.972;7.856;2023-08-08T07:43:02;12.80;99.90
5556;DHT22;2801;50.972;7.856;2023-08-08T07:45:29;12.80;99.90
5556;DHT22;2801;50.972;7.856;2023-08-08T07:47:56;12.90;99.90
5556;DHT22;2801;50.972;7.856;2023-08-08T07:50:23;12.90;99.90
5556;DHT22;2801;50.972;7.856;2023-08-08T07:52:50;13.00;99.90
5556;DHT22;2801;50.972;7.856;2023-08-08T07:55:17;13.10;99.90
5556;DHT22;2801;50.972;7.856;2023-08-08T07:57:44;13.10;99.90
5556;DHT22;2801;50.972;7.856;2023-08-08T08:00:12;13.20;99.90
5556;DHT22;2801;50.972;7.856;2023-08-08T08:02:44;13.20;99.90
5556;DHT22;2801;50.972;7.856;2023-08-08T08:05:12;13.30;99.90
5556;DHT22;2801;50.972;7.856;2023-08-08T08:07:40;13.30;99.90
5556;DHT22;2801;50.972;7.856;2023-08-08T08:10:09;13.40;99.90
5556;DHT22;2801;50.972;7.856;2023-08-08T08:12:40;13.50;99.90
5556;DHT22;2801;50.972;7.856;2023-08-08T08:15:09;13.50;99.90
5556;DHT22;2801;50.972;7.856;2023-08-08T08:17:37;13.50;99.90
5556;DHT22;2801;50.972;7.856;2023-08-08T08:20:06;13.60;99.90
5556;DHT22;2801;50.972;7.856;2023-08-08T08:22:38;13.60;99.90
5556;DHT22;2801;50.972;7.856;2023-08-08T08:25:06;13.80;99.90
5556;DHT22;2801;50.972;7.856;2023-08-08T08:27:36;13.90;99.90
5556;DHT22;2801;50.972;7.856;2023-08-08T08:30:07;14.00;99.90
5556;DHT22;2801;50.972;7.856;2023-08-08T08:32:39;14.10;99.90
5556;DHT22;2801;50.972;7.856;2023-08-08T08:35:08;14.20;99.90
5556;DHT22;2801;50.972;7.856;2023-08-08T08:37:35;14.30;99.90
5556;DHT22;2801;50.972;7.856;2023-08-08T08:40:03;14.40;99.90
5556;DHT22;2801;50.972;7.856;2023-08-08T08:42:32;14.50;99.90
5556;DHT22;2801;50.972;7.856;2023-08-08T08:45:02;14.50;99.90
5556;DHT22;2801;50.972;7.856;2023-08-08T08:47:31;14.40;99.90
5556;DHT22;2801;50.972;7.856;2023-08-08T08:50:02;14.30;99.90
5556;DHT22;2801;50.972;7.856;2023-08-08T08:52:30;14.30;99.90
5556;DHT22;2801;50.972;7.856;2023-08-08T08:54:57;14.50;99.90
5556;DHT22;2801;50.972;7.856;2023-08-08T08:57:24;14.80;99.90
5556;DHT22;2801;50.972;7.856;2023-08-08T08:59:52;15.00;99.90
5556;DHT22;2801;50.972;7.856;2023-08-08T09:02:19;15.10;99.90
5556;DHT22;2801;50.972;7.856;2023-08-08T09:04:47;15.10;99.90
5556;DHT22;2801;50.972;7.856;2023-08-08T09:07:16;15.20;99.90
5556;DHT22;2801;50.972;7.856;2023-08-08T09:09:47;15.20;99.90
5556;DHT22;2801;50.972;7.856;2023-08-08T09:12:14;15.10;99.90
5556;DHT22;2801;50.972;7.856;2023-08-08T09:14:44;15.00;99.90
5556;DHT22;2801;50.972;7.856;2023-08-08T09:17:12;14.90;99.90
5556;DHT22;2801;50.972;7.856;2023-08-08T09:19:44;14.90;99.90
5556;DHT22;2801;50.972;7.856;2023-08-08T09:22:13;15.00;99.90
5556;DHT22;2801;50.972;7.856;2023-08-08T09:24:41;15.00;99.90
5556;DHT22;2801;50.972;7.856;2023-08-08T09:27:09;15.10;99.90
5556;DHT22;2801;50.972;7.856;2023-08-08T09:29:37;15.20;99.90
5556;DHT22;2801;50.972;7.856;2023-08-08T09:32:06;15.20;99.90
5556;DHT22;2801;50.972;7.856;2023-08-08T09:34:34;15.50;99.90
5556;DHT22;2801;50.972;7.856;2023-08-08T09:37:01;15.60;99.90
5556;DHT22;2801;50.972;7.856;2023-08-08T09:39:29;15.70;99.90
5556;DHT22;2801;50.972;7.856;2023-08-08T09:41:56;15.70;99.90
5556;DHT22;2801;50.972;7.856;2023-08-08T09:44:24;15.60;99.90
5556;DHT22;2801;50.972;7.856;2023-08-08T09:46:53;15.50;99.90
5556;DHT22;2801;50.972;7.856;2023-08-08T09:49:21;15.40;99.90
5556;DHT22;2801;50.972;7.856;2023-08-08T09:51:52;15.20;99.90
5556;DHT22;2801;50.972;7.856;2023-08-08T09:54:19;15.00;99.90
5556;DHT22;2801;50.972;7.856;2023-08-08T09:56:49;14.70;99.90
5556;DHT22;2801;50.972;7.856;2023-08-08T09:59:18;14.50;99.90
5556;DHT22;2801;50.972;7.856;2023-08-08T10:01:46;14.20;99.90
5556;DHT22;2801;50.972;7.856;2023-08-08T10:04:14;14.00;99.90
5556;DHT22;2801;50.972;7.856;2023-08-08T10:06:42;13.90;99.90
5556;DHT22;2801;50.972;7.856;2023-08-08T10:09:09;13.70;99.90
5556;DHT22;2801;50.972;7.856;2023-08-08T10:11:36;13.50;99.90
5556;DHT22;2801;50.972;7.856;2023-08-08T10:14:04;13.50;99.90
5556;DHT22;2801;50.972;7.856;2023-08-08T10:16:34;13.60;99.90
5556;DHT22;2801;50.972;7.856;2023-08-08T10:19:03;13.60;99.90
5556;DHT22;2801;50.972;7.856;2023-08-08T10:21:37;13.60;99.90
5556;DHT22;2801;50.972;7.856;2023-08-08T10:24:08;13.60;99.90
5556;DHT22;2801;50.972;7.856;2023-08-08T10:26:57;13.60;99.90
5556;DHT22;2801;50.972;7.856;2023-08-08T10:29:28;13.60;99.90
5556;DHT22;2801;50.972;7.856;2023-08-08T10:32:00;13.70;99.90
5556;DHT22;2801;50.972;7.856;2023-08-08T10:34:39;13.70;99.90
5556;DHT22;2801;50.972;7.856;2023-08-08T10:37:17;13.60;99.90
5556;DHT22;2801;50.972;7.856;2023-08-08T10:39:55;13.60;99.90
5556;DHT22;2801;50.972;7.856;2023-08-08T10:42:27;13.60;99.90
5556;DHT22;2801;50.972;7.856;2023-08-08T10:45:02;13.60;99.90
5556;DHT22;2801;50.972;7.856;2023-08-08T10:47:35;13.60;99.90
5556;DHT22;2801;50.972;7.856;2023-08-08T10:50:07;13.50;99.90
5556;DHT22;2801;50.972;7.856;2023-08-08T10:52:58;13.50;99.90
5556;DHT22;2801;50.972;7.856;2023-08-08T10:55:31;13.40;99.90
5556;DHT22;2801;50.972;7.856;2023-08-08T11:00:36;13.30;99.90
5556;DHT22;2801;50.972;7.856;2023-08-08T11:03:06;13.30;99.90
5556;DHT22;2801;50.972;7.856;2023-08-08T11:05:36;13.30;99.90
5556;DHT22;2801;50.972;7.856;2023-08-08T11:08:06;13.30;99.90
5556;DHT22;2801;50.972;7.856;2023-08-08T11:10:39;13.30;99.90
5556;DHT22;2801;50.972;7.856;2023-08-08T11:13:07;13.40;99.90
5556;DHT22;2801;50.972;7.856;2023-08-08T11:15:36;13.40;99.90
5556;DHT22;2801;50.972;7.856;2023-08-08T11:18:05;13.50;99.90
5556;DHT22;2801;50.972;7.856;2023-08-08T11:20:34;13.50;99.90
5556;DHT22;2801;50.972;7.856;2023-08-08T11:23:03;13.60;99.90
5556;DHT22;2801;50.972;7.856;2023-08-08T11:25:40;13.60;99.90
5556;DHT22;2801;50.972;7.856;2023-08-08T11:28:09;13.60;99.90
5556;DHT22;2801;50.972;7.856;2023-08-08T11:30:39;13.60;99.90
5556;DHT22;2801;50.972;7.856;2023-08-08T11:33:12;13.60;99.90
5556;DHT22;2801;50.972;7.856;2023-08-08T11:35:45;13.70;99.90
5556;DHT22;2801;50.972;7.856;2023-08-08T11:38:14;13.70;99.90
5556;DHT22;2801;50.972;7.856;2023-08-08T11:40:42;13.80;99.90
5556;DHT22;2801;50.972;7.856;2023-08-08T11:43:10;13.80;99.90
5556;DHT22;2801;50.972;7.856;2023-08-08T11:45:38;13.80;99.90
5556;DHT22;2801;50.972;7.856;2023-08-08T11:48:05;13.90;99.90
5556;DHT22;2801;50.972;7.856;2023-08-08T11:50:37;13.80;99.90
5556;DHT22;2801;50.972;7.856;2023-08-08T11:53:04;13.70;99.90
5556;DHT22;2801;50.972;7.856;2023-08-08T11:55:32;13.70;99.90
5556;DHT22;2801;50.972;7.856;2023-08-08T11:58:00;13.80;99.90
5556;DHT22;2801;50.972;7.856;2023-08-08T12:00:28;13.80;99.90
5556;DHT22;2801;50.972;7.856;2023-08-08T12:02:57;13.80;99.90
5556;DHT22;2801;50.972;7.856;2023-08-08T12:05:25;13.80;99.90
5556;DHT22;2801;50.972;7.856;2023-08-08T12:07:53;13.90;99.90
5556;DHT22;2801;50.972;7.856;2023-08-08T12:10:23;13.80;99.90
5556;DHT22;2801;50.972;7.856;2023-08-08T12:12:56;13.80;99.90
5556;DHT22;2801;50.972;7.856;2023-08-08T12:15:35;13.70;99.90
5556;DHT22;2801;50.972;7.856;2023-08-08T12:18:05;13.70;99.90
5556;DHT22;2801;50.972;7.856;2023-08-08T12:20:32;13.80;99.90
5556;DHT22;2801;50.972;7.856;2023-08-08T12:23:00;13.90;99.90
5556;DHT22;2801;50.972;7.856;2023-08-08T12:25:27;14.00;99.90
5556;DHT22;2801;50.972;7.856;2023-08-08T12:27:54;14.00;99.90
5556;DHT22;2801;50.972;7.856;2023-08-08T12:30:21;14.00;99.90
5556;DHT22;2801;50.972;7.856;2023-08-08T12:32:48;14.00;99.90
5556;DHT22;2801;50.972;7.856;2023-08-08T12:35:15;14.10;99.90
5556;DHT22;2801;50.972;7.856;2023-08-08T12:37:43;14.10;99.90
5556;DHT22;2801;50.972;7.856;2023-08-08T12:40:11;14.00;99.90
5556;DHT22;2801;50.972;7.856;2023-08-08T12:42:38;14.00;99.90
5556;DHT22;2801;50.972;7.856;2023-08-08T12:45:06;14.00;99.90
5556;DHT22;2801;50.972;7.856;2023-08-08T12:47:34;14.00;99.90
5556;DHT22;2801;50.972;7.856;2023-08-08T12:50:05;14.00;99.90
5556;DHT22;2801;50.972;7.856;2023-08-08T12:52:33;14.10;99.90
5556;DHT22;2801;50.972;7.856;2023-08-08T12:55:00;14.20;99.90
5556;DHT22;2801;50.972;7.856;2023-08-08T12:57:27;14.20;99.90
5556;DHT22;2801;50.972;7.856;2023-08-08T12:59:54;14.10;99.90
5556;DHT22;2801;50.972;7.856;2023-08-08T13:02:21;14.10;99.90
5556;DHT22;2801;50.972;7.856;2023-08-08T13:04:48;14.10;99.90
5556;DHT22;2801;50.972;7.856;2023-08-08T13:07:15;14.10;99.90
5556;DHT22;2801;50.972;7.856;2023-08-08T13:09:42;14.10;99.90
5556;DHT22;2801;50.972;7.856;2023-08-08T13:12:09;14.10;99.90
5556;DHT22;2801;50.972;7.856;2023-08-08T13:14:37;14.10;99.90
5556;DHT22;2801;50.972;7.856;2023-08-08T13:17:04;14.10;99.90
5556;DHT22;2801;50.972;7.856;2023-08-08T13:19:32;14.10;99.90
5556;DHT22;2801;50.972;7.856;2023-08-08T13:21:59;14.10;99.90
5556;DHT22;2801;50.972;7.856;2023-08-08T13:24:26;14.10;99.90
5556;DHT22;2801;50.972;7.856;2023-08-08T13:26:53;14.20;99.90
5556;DHT22;2801;50.972;7.856;2023-08-08T13:29:20;14.10;99.90
5556;DHT22;2801;50.972;7.856;2023-08-08T13:31:47;14.00;99.90
5556;DHT22;2801;50.972;7.856;2023-08-08T13:34:14;14.00;99.90
5556;DHT22;2801;50.972;7.856;2023-08-08T13:36:42;14.00;99.90
5556;DHT22;2801;50.972;7.856;2023-08-08T13:39:09;14.00;99.90
5556;DHT22;2801;50.972;7.856;2023-08-08T13:41:36;14.10;99.90
5556;DHT22;2801;50.972;7.856;2023-08-08T13:44:03;14.10;99.90
5556;DHT22;2801;50.972;7.856;2023-08-08T13:46:30;14.00;99.90
5556;DHT22;2801;50.972;7.856;2023-08-08T13:48:57;14.00;99.90
5556;DHT22;2801;50.972;7.856;2023-08-08T13:51:24;14.00;99.90
5556;DHT22;2801;50.972;7.856;2023-08-08T13:53:51;14.00;99.90
5556;DHT22;2801;50.972;7.856;2023-08-08T13:56:18;13.90;99.90
5556;DHT22;2801;50.972;7.856;2023-08-08T13:58:45;13.90;99.90
5556;DHT22;2801;50.972;7.856;2023-08-08T14:01:12;13.80;99.90
5556;DHT22;2801;50.972;7.856;2023-08-08T14:03:40;13.90;99.90
5556;DHT22;2801;50.972;7.856;2023-08-08T14:06:07;13.90;99.90
5556;DHT22;2801;50.972;7.856;2023-08-08T14:08:34;13.80;99.90
5556;DHT22;2801;50.972;7.856;2023-08-08T14:11:01;13.80;99.90
5556;DHT22;2801;50.972;7.856;2023-08-08T14:13:28;13.80;99.90
5556;DHT22;2801;50.972;7.856;2023-08-08T14:15:55;13.80;99.90
5556;DHT22;2801;50.972;7.856;2023-08-08T14:18:22;13.80;99.90
5556;DHT22;2801;50.972;7.856;2023-08-08T14:20:49;13.80;99.90
5556;DHT22;2801;50.972;7.856;2023-08-08T14:23:16;13.90;99.90
5556;DHT22;2801;50.972;7.856;2023-08-08T14:25:43;13.90;99.90
5556;DHT22;2801;50.972;7.856;2023-08-08T14:28:10;13.90;99.90
5556;DHT22;2801;50.972;7.856;2023-08-08T14:30:37;14.00;99.90
5556;DHT22;2801;50.972;7.856;2023-08-08T14:33:04;14.00;99.90
5556;DHT22;2801;50.972;7.856;2023-08-08T14:35:31;14.20;99.90
5556;DHT22;2801;50.972;7.856;2023-08-08T14:37:58;14.40;99.90
5556;DHT22;2801;50.972;7.856;2023-08-08T14:40:25;14.70;99.90
5556;DHT22;2801;50.972;7.856;2023-08-08T14:42:52;15.00;99.90
5556;DHT22;2801;50.972;7.856;2023-08-08T14:45:21;15.20;99.90
5556;DHT22;2801;50.972;7.856;2023-08-08T14:47:50;15.40;99.90
5556;DHT22;2801;50.972;7.856;2023-08-08T14:50:17;15.60;99.90
5556;DHT22;2801;50.972;7.856;2023-08-08T14:52:45;15.70;99.90
5556;DHT22;2801;50.972;7.856;2023-08-08T14:55:12;15.80;99.90
5556;DHT22;2801;50.972;7.856;2023-08-08T14:57:39;15.70;99.90
5556;DHT22;2801;50.972;7.856;2023-08-08T15:00:07;15.70;99.90
5556;DHT22;2801;50.972;7.856;2023-08-08T15:02:35;15.70;99.90
5556;DHT22;2801;50.972;7.856;2023-08-08T15:05:03;15.70;99.90
5556;DHT22;2801;50.972;7.856;2023-08-08T15:07:30;15.90;99.90
5556;DHT22;2801;50.972;7.856;2023-08-08T15:09:57;16.00;99.90
5556;DHT22;2801;50.972;7.856;2023-08-08T15:12:24;15.90;99.90
5556;DHT22;2801;50.972;7.856;2023-08-08T15:14:51;15.90;99.90
5556;DHT22;2801;50.972;7.856;2023-08-08T15:17:18;15.90;99.90
5556;DHT22;2801;50.972;7.856;2023-08-08T15:19:45;15.90;99.90
5556;DHT22;2801;50.972;7.856;2023-08-08T15:22:12;15.90;99.90
5556;DHT22;2801;50.972;7.856;2023-08-08T15:24:39;15.90;99.90
5556;DHT22;2801;50.972;7.856;2023-08-08T15:27:06;15.90;99.90
5556;DHT22;2801;50.972;7.856;2023-08-08T15:29:33;16.00;99.90
5556;DHT22;2801;50.972;7.856;2023-08-08T15:32:00;16.10;99.90
5556;DHT22;2801;50.972;7.856;2023-08-08T15:34:27;16.40;99.90
5556;DHT22;2801;50.972;7.856;2023-08-08T15:36:54;16.60;99.90
5556;DHT22;2801;50.972;7.856;2023-08-08T15:39:25;16.80;99.90
5556;DHT22;2801;50.972;7.856;2023-08-08T15:41:52;17.10;99.90
5556;DHT22;2801;50.972;7.856;2023-08-08T15:44:19;17.40;99.90
5556;DHT22;2801;50.972;7.856;2023-08-08T15:46:45;17.70;99.90
5556;DHT22;2801;50.972;7.856;2023-08-08T15:49:13;17.80;99.90
5556;DHT22;2801;50.972;7.856;2023-08-08T15:51:41;17.90;99.90
5556;DHT22;2801;50.972;7.856;2023-08-08T15:54:08;17.80;99.90
5556;DHT22;2801;50.972;7.856;2023-08-08T15:56:35;17.70;99.90
5556;DHT22;2801;50.972;7.856;2023-08-08T15:59:05;17.50;99.90
5556;DHT22;2801;50.972;7.856;2023-08-08T16:01:33;17.30;99.90
5556;DHT22;2801;50.972;7.856;2023-08-08T16:04:00;17.20;99.90
5556;DHT22;2801;50.972;7.856;2023-08-08T16:06:27;17.10;99.90
5556;DHT22;2801;50.972;7.856;2023-08-08T16:08:54;17.00;99.90
5556;DHT22;2801;50.972;7.856;2023-08-08T16:11:21;17.00;99.90